PWSweather.com
Personal Weather Stations
Station Observations
PICKERING
North Yorkshire, PickeringGB

North YorkshirePickeringGB

Lat: 54.2494, Lon: -0.7725

Elevation: 192

Station Type: Oregon Scientific WMR100

High Low Average
Temperature 71.6°F22.0°C 57.7°F14.3°C 63.2°F17.3°C
Dew Point 60.8°F16.0°C 51.8°F11.0°C 56.7°F13.7°C
Winds 10.4 mph 16.7 kmh 2.8 mph 4.5 kmh 6.0 mph SSW9.7 kmh SSW
Wind Gusts 19.9 mph32.0 kmh 4.9 mph7.9 kmh 11.0 mph17.7 kmh
Humidity 84% 67% 79%
Pressure 29.53 in1000.0 mb 29.18 in988.1 mb -
Precipitation 0.28 in7.1 mm - -
Hour Temp Dew Point Humidity Winds Wind Gusts Pressure Precip Precip Rate Daily Precip Total
12:00 AM 63.5°F17.5°C 55.4°F13.0°C 76% 5.7 mph S9.2 kmh S 9.6 mph15.4 kmh 29.27 in991.2 mb 0.00 in0.0 mm 0.00 in0.0 mm 0.00 in0.0 mm
12:05 AM 63.5°F17.5°C 55.4°F13.0°C 76% 6.1 mph S9.8 kmh S 9.6 mph15.4 kmh 29.27 in991.2 mb 0.00 in0.0 mm 0.00 in0.0 mm 0.00 in0.0 mm
12:10 AM 63.5°F17.5°C 55.4°F13.0°C 76% 7.1 mph S11.4 kmh S 11.2 mph18.0 kmh 29.27 in991.2 mb 0.00 in0.0 mm 0.00 in0.0 mm 0.00 in0.0 mm
12:15 AM 63.3°F17.4°C 55.4°F13.0°C 77% 6.8 mph S10.9 kmh S 11.2 mph18.0 kmh 29.27 in991.2 mb 0.00 in0.0 mm 0.00 in0.0 mm 0.00 in0.0 mm
12:20 AM 63.1°F17.3°C 55.4°F13.0°C 77% 6.5 mph S10.5 kmh S 10.3 mph16.6 kmh 29.27 in991.2 mb 0.00 in0.0 mm 0.00 in0.0 mm 0.00 in0.0 mm
12:25 AM 63.1°F17.3°C 55.4°F13.0°C 76% 8.3 mph S13.4 kmh S 14.8 mph23.8 kmh 29.24 in990.2 mb 0.00 in0.0 mm 0.00 in0.0 mm 0.00 in0.0 mm
12:30 AM 63.1°F17.3°C 55.4°F13.0°C 77% 8.9 mph S14.3 kmh S 14.8 mph23.8 kmh 29.24 in990.2 mb 0.00 in0.0 mm 0.00 in0.0 mm 0.00 in0.0 mm
12:35 AM 63.0°F17.2°C 55.4°F13.0°C 77% 8.5 mph S13.7 kmh S 11.9 mph19.2 kmh 29.24 in990.2 mb 0.00 in0.0 mm 0.00 in0.0 mm 0.00 in0.0 mm
12:40 AM 63.0°F17.2°C 55.4°F13.0°C 77% 7.5 mph S12.1 kmh S 11.9 mph19.2 kmh 29.24 in990.2 mb 0.00 in0.0 mm 0.00 in0.0 mm 0.00 in0.0 mm
12:45 AM 62.8°F17.1°C 55.4°F13.0°C 77% 5.6 mph S9.0 kmh S 10.5 mph16.9 kmh 29.24 in990.2 mb 0.00 in0.0 mm 0.00 in0.0 mm 0.00 in0.0 mm
12:50 AM 62.6°F17.0°C 55.4°F13.0°C 77% 6.1 mph S9.8 kmh S 9.8 mph15.8 kmh 29.24 in990.2 mb 0.00 in0.0 mm 0.00 in0.0 mm 0.00 in0.0 mm
12:55 AM 62.6°F17.0°C 55.4°F13.0°C 77% 6.3 mph S10.1 kmh S 9.8 mph15.8 kmh 29.24 in990.2 mb 0.00 in0.0 mm 0.00 in0.0 mm 0.00 in0.0 mm
01:00 AM 62.6°F17.0°C 55.4°F13.0°C 77% 6.0 mph S9.7 kmh S 8.5 mph13.7 kmh 29.24 in990.2 mb 0.00 in0.0 mm 0.00 in0.0 mm 0.00 in0.0 mm
01:05 AM 62.6°F17.0°C 55.4°F13.0°C 77% 7.0 mph SSE11.3 kmh SSE 12.8 mph20.6 kmh 29.24 in990.2 mb 0.00 in0.0 mm 0.00 in0.0 mm 0.00 in0.0 mm
01:10 AM 62.4°F16.9°C 55.4°F13.0°C 78% 8.6 mph SSE13.8 kmh SSE 12.8 mph20.6 kmh 29.24 in990.2 mb 0.00 in0.0 mm 0.00 in0.0 mm 0.00 in0.0 mm
01:15 AM 62.4°F16.9°C 55.4°F13.0°C 78% 7.7 mph SSE12.4 kmh SSE 12.3 mph19.8 kmh 29.24 in990.2 mb 0.00 in0.0 mm 0.00 in0.0 mm 0.00 in0.0 mm
01:20 AM 62.4°F16.9°C 55.4°F13.0°C 78% 5.9 mph S9.5 kmh S 10.5 mph16.9 kmh 29.24 in990.2 mb 0.00 in0.0 mm 0.00 in0.0 mm 0.00 in0.0 mm
01:25 AM 62.4°F16.9°C 55.4°F13.0°C 78% 6.5 mph S10.5 kmh S 10.5 mph16.9 kmh 29.24 in990.2 mb 0.00 in0.0 mm 0.00 in0.0 mm 0.00 in0.0 mm
01:30 AM 62.4°F16.9°C 55.4°F13.0°C 78% 6.2 mph S10.0 kmh S 8.5 mph13.7 kmh 29.24 in990.2 mb 0.00 in0.0 mm 0.00 in0.0 mm 0.00 in0.0 mm
01:35 AM 62.4°F16.9°C 55.4°F13.0°C 78% 5.6 mph S9.0 kmh S 8.5 mph13.7 kmh 29.24 in990.2 mb 0.00 in0.0 mm 0.00 in0.0 mm 0.00 in0.0 mm
01:40 AM 62.4°F16.9°C 55.4°F13.0°C 78% 5.4 mph S8.7 kmh S 8.7 mph14.0 kmh 29.24 in990.2 mb 0.00 in0.0 mm 0.00 in0.0 mm 0.00 in0.0 mm
01:45 AM 62.4°F16.9°C 55.4°F13.0°C 78% 5.8 mph S9.3 kmh S 13.0 mph20.9 kmh 29.24 in990.2 mb 0.00 in0.0 mm 0.00 in0.0 mm 0.00 in0.0 mm
01:50 AM 62.4°F16.9°C 55.4°F13.0°C 78% 6.7 mph SSE10.8 kmh SSE 13.0 mph20.9 kmh 29.24 in990.2 mb 0.00 in0.0 mm 0.00 in0.0 mm 0.00 in0.0 mm
01:55 AM 62.2°F16.8°C 55.4°F13.0°C 78% 6.3 mph S10.1 kmh S 13.0 mph20.9 kmh 29.24 in990.2 mb 0.00 in0.0 mm 0.00 in0.0 mm 0.00 in0.0 mm
02:00 AM 62.2°F16.8°C 55.4°F13.0°C 79% 4.2 mph S6.8 kmh S 5.8 mph9.3 kmh 29.24 in990.2 mb 0.00 in0.0 mm 0.00 in0.0 mm 0.00 in0.0 mm
02:05 AM 62.2°F16.8°C 55.4°F13.0°C 79% 4.2 mph S6.8 kmh S 6.3 mph10.1 kmh 29.24 in990.2 mb 0.00 in0.0 mm 0.00 in0.0 mm 0.00 in0.0 mm
02:10 AM 62.2°F16.8°C 55.4°F13.0°C 79% 4.9 mph SSE7.9 kmh SSE 7.6 mph12.2 kmh 29.21 in989.2 mb 0.00 in0.0 mm 0.00 in0.0 mm 0.00 in0.0 mm
02:15 AM 62.2°F16.8°C 55.4°F13.0°C 79% 5.2 mph SSE8.4 kmh SSE 7.6 mph12.2 kmh 29.21 in989.2 mb 0.00 in0.0 mm 0.00 in0.0 mm 0.00 in0.0 mm
02:20 AM 62.1°F16.7°C 55.4°F13.0°C 79% 4.6 mph SSE7.4 kmh SSE 7.2 mph11.6 kmh 29.21 in989.2 mb 0.00 in0.0 mm 0.00 in0.0 mm 0.00 in0.0 mm
02:25 AM 62.1°F16.7°C 55.4°F13.0°C 79% 4.7 mph SSE7.6 kmh SSE 6.7 mph10.8 kmh 29.21 in989.2 mb 0.00 in0.0 mm 0.00 in0.0 mm 0.00 in0.0 mm
02:30 AM 62.2°F16.8°C 55.4°F13.0°C 79% 5.9 mph S9.5 kmh S 10.5 mph16.9 kmh 29.21 in989.2 mb 0.00 in0.0 mm 0.00 in0.0 mm 0.00 in0.0 mm
02:35 AM 62.2°F16.8°C 55.4°F13.0°C 79% 6.8 mph SSE10.9 kmh SSE 10.5 mph16.9 kmh 29.21 in989.2 mb 0.00 in0.0 mm 0.00 in0.0 mm 0.00 in0.0 mm
02:40 AM 62.2°F16.8°C 55.4°F13.0°C 79% 6.7 mph SSE10.8 kmh SSE 9.2 mph14.8 kmh 29.21 in989.2 mb 0.00 in0.0 mm 0.00 in0.0 mm 0.00 in0.0 mm
02:45 AM 62.1°F16.7°C 55.4°F13.0°C 79% 7.2 mph SSE11.6 kmh SSE 8.5 mph13.7 kmh 29.21 in989.2 mb 0.00 in0.0 mm 0.00 in0.0 mm 0.00 in0.0 mm
02:50 AM 62.1°F16.7°C 55.4°F13.0°C 79% 6.9 mph S11.1 kmh S 8.5 mph13.7 kmh 29.21 in989.2 mb 0.00 in0.0 mm 0.00 in0.0 mm 0.00 in0.0 mm
02:55 AM 62.1°F16.7°C 55.4°F13.0°C 79% 6.1 mph SSE9.8 kmh SSE 8.5 mph13.7 kmh 29.21 in989.2 mb 0.00 in0.0 mm 0.00 in0.0 mm 0.00 in0.0 mm
03:00 AM 62.1°F16.7°C 55.4°F13.0°C 79% 6.5 mph SSE10.5 kmh SSE 8.5 mph13.7 kmh 29.21 in989.2 mb 0.00 in0.0 mm 0.00 in0.0 mm 0.00 in0.0 mm
03:05 AM 62.1°F16.7°C 55.4°F13.0°C 79% 7.2 mph S11.6 kmh S 10.5 mph16.9 kmh 29.21 in989.2 mb 0.00 in0.0 mm 0.00 in0.0 mm 0.00 in0.0 mm
03:10 AM 62.1°F16.7°C 55.4°F13.0°C 79% 5.7 mph S9.2 kmh S 10.5 mph16.9 kmh 29.21 in989.2 mb 0.00 in0.0 mm 0.00 in0.0 mm 0.00 in0.0 mm
03:15 AM 62.1°F16.7°C 55.4°F13.0°C 79% 5.6 mph S9.0 kmh S 11.0 mph17.7 kmh 29.21 in989.2 mb 0.00 in0.0 mm 0.00 in0.0 mm 0.00 in0.0 mm
03:20 AM 62.1°F16.7°C 55.4°F13.0°C 79% 6.5 mph S10.5 kmh S 11.0 mph17.7 kmh 29.21 in989.2 mb 0.00 in0.0 mm 0.00 in0.0 mm 0.00 in0.0 mm
03:25 AM 61.7°F16.5°C 55.4°F13.0°C 79% 6.2 mph S10.0 kmh S 8.1 mph13.0 kmh 29.21 in989.2 mb 0.06 in1.5 mm 0.72 in18.3 mm 0.06 in1.5 mm
03:30 AM 61.3°F16.3°C 55.4°F13.0°C 80% 6.7 mph SSE10.8 kmh SSE 10.1 mph16.3 kmh 29.21 in989.2 mb 0.06 in1.5 mm 0.00 in0.0 mm 0.06 in1.5 mm
03:35 AM 61.2°F16.2°C 55.4°F13.0°C 81% 6.2 mph S10.0 kmh S 10.1 mph16.3 kmh 29.21 in989.2 mb 0.06 in1.5 mm 0.00 in0.0 mm 0.06 in1.5 mm
03:40 AM 61.2°F16.2°C 55.4°F13.0°C 81% 4.9 mph S7.9 kmh S 6.3 mph10.1 kmh 29.21 in989.2 mb 0.06 in1.5 mm 0.00 in0.0 mm 0.06 in1.5 mm
03:45 AM 61.2°F16.2°C 55.4°F13.0°C 82% 4.3 mph S6.9 kmh S 6.5 mph10.5 kmh 29.21 in989.2 mb 0.06 in1.5 mm 0.00 in0.0 mm 0.06 in1.5 mm
03:50 AM 61.2°F16.2°C 55.4°F13.0°C 81% 3.9 mph S6.3 kmh S 6.9 mph11.1 kmh 29.21 in989.2 mb 0.06 in1.5 mm 0.00 in0.0 mm 0.06 in1.5 mm
03:55 AM 61.2°F16.2°C 55.4°F13.0°C 82% 4.3 mph S6.9 kmh S 6.9 mph11.1 kmh 29.21 in989.2 mb 0.06 in1.5 mm 0.00 in0.0 mm 0.06 in1.5 mm
04:00 AM 61.2°F16.2°C 55.4°F13.0°C 82% 5.2 mph S8.4 kmh S 7.8 mph12.6 kmh 29.21 in989.2 mb 0.06 in1.5 mm 0.00 in0.0 mm 0.06 in1.5 mm
04:05 AM 61.2°F16.2°C 55.4°F13.0°C 82% 6.3 mph S10.1 kmh S 8.7 mph14.0 kmh 29.21 in989.2 mb 0.06 in1.5 mm 0.00 in0.0 mm 0.06 in1.5 mm
04:10 AM 61.2°F16.2°C 55.4°F13.0°C 82% 6.5 mph S10.5 kmh S 8.7 mph14.0 kmh 29.21 in989.2 mb 0.06 in1.5 mm 0.00 in0.0 mm 0.06 in1.5 mm
04:15 AM 61.2°F16.2°C 55.4°F13.0°C 82% 5.8 mph SSE9.3 kmh SSE 12.8 mph20.6 kmh 29.21 in989.2 mb 0.06 in1.5 mm 0.00 in0.0 mm 0.06 in1.5 mm
04:20 AM 61.2°F16.2°C 55.4°F13.0°C 81% 6.9 mph SSE11.1 kmh SSE 12.8 mph20.6 kmh 29.21 in989.2 mb 0.06 in1.5 mm 0.00 in0.0 mm 0.06 in1.5 mm
04:25 AM 61.2°F16.2°C 55.4°F13.0°C 81% 7.6 mph SSE12.2 kmh SSE 19.2 mph30.9 kmh 29.18 in988.1 mb 0.00 in0.0 mm 0.00 in0.0 mm 0.06 in1.5 mm
04:30 AM 61.2°F16.2°C 55.4°F13.0°C 82% 7.4 mph S11.9 kmh S 19.2 mph30.9 kmh 29.18 in988.1 mb 0.00 in0.0 mm 0.00 in0.0 mm 0.06 in1.5 mm
04:35 AM 61.2°F16.2°C 55.4°F13.0°C 82% 7.6 mph S12.2 kmh S 10.5 mph16.9 kmh 29.18 in988.1 mb 0.00 in0.0 mm 0.00 in0.0 mm 0.06 in1.5 mm
04:40 AM 61.2°F16.2°C 55.4°F13.0°C 82% 7.3 mph S11.7 kmh S 10.5 mph16.9 kmh 29.18 in988.1 mb 0.00 in0.0 mm 0.00 in0.0 mm 0.06 in1.5 mm
04:45 AM 61.2°F16.2°C 55.4°F13.0°C 83% 6.1 mph S9.8 kmh S 10.3 mph16.6 kmh 29.18 in988.1 mb 0.00 in0.0 mm 0.00 in0.0 mm 0.06 in1.5 mm
04:50 AM 61.2°F16.2°C 55.4°F13.0°C 83% 4.5 mph SSE7.2 kmh SSE 8.7 mph14.0 kmh 29.18 in988.1 mb 0.00 in0.0 mm 0.00 in0.0 mm 0.06 in1.5 mm
04:55 AM 61.2°F16.2°C 55.4°F13.0°C 82% 5.2 mph SSE8.4 kmh SSE 7.6 mph12.2 kmh 29.21 in989.2 mb 0.00 in0.0 mm 0.00 in0.0 mm 0.06 in1.5 mm
05:00 AM 61.2°F16.2°C 55.4°F13.0°C 83% 5.1 mph S8.2 kmh S 7.6 mph12.2 kmh 29.21 in989.2 mb 0.00 in0.0 mm 0.00 in0.0 mm 0.06 in1.5 mm
05:05 AM 61.2°F16.2°C 55.4°F13.0°C 82% 5.7 mph S9.2 kmh S 11.9 mph19.2 kmh 29.21 in989.2 mb 0.00 in0.0 mm 0.00 in0.0 mm 0.06 in1.5 mm
05:10 AM 61.2°F16.2°C 55.4°F13.0°C 83% 6.7 mph S10.8 kmh S 11.9 mph19.2 kmh 29.21 in989.2 mb 0.00 in0.0 mm 0.00 in0.0 mm 0.06 in1.5 mm
05:15 AM 61.2°F16.2°C 55.4°F13.0°C 83% 7.4 mph S11.9 kmh S 12.8 mph20.6 kmh 29.21 in989.2 mb 0.00 in0.0 mm 0.00 in0.0 mm 0.06 in1.5 mm
05:20 AM 61.2°F16.2°C 55.4°F13.0°C 83% 6.9 mph S11.1 kmh S 12.8 mph20.6 kmh 29.21 in989.2 mb 0.00 in0.0 mm 0.00 in0.0 mm 0.06 in1.5 mm
05:25 AM 61.3°F16.3°C 55.4°F13.0°C 83% 5.4 mph S8.7 kmh S 8.1 mph13.0 kmh 29.21 in989.2 mb 0.00 in0.0 mm 0.00 in0.0 mm 0.06 in1.5 mm
05:30 AM 61.3°F16.3°C 55.4°F13.0°C 82% 5.9 mph S9.5 kmh S 11.0 mph17.7 kmh 29.21 in989.2 mb 0.00 in0.0 mm 0.00 in0.0 mm 0.06 in1.5 mm
05:35 AM 61.2°F16.2°C 55.4°F13.0°C 83% 6.3 mph SSW10.1 kmh SSW 11.0 mph17.7 kmh 29.21 in989.2 mb 0.00 in0.0 mm 0.00 in0.0 mm 0.06 in1.5 mm
05:40 AM 61.2°F16.2°C 55.4°F13.0°C 83% 5.4 mph S8.7 kmh S 10.1 mph16.3 kmh 29.21 in989.2 mb 0.00 in0.0 mm 0.00 in0.0 mm 0.06 in1.5 mm
05:45 AM 61.3°F16.3°C 55.4°F13.0°C 83% 4.3 mph S6.9 kmh S 7.2 mph11.6 kmh 29.21 in989.2 mb 0.00 in0.0 mm 0.00 in0.0 mm 0.06 in1.5 mm
05:50 AM 61.3°F16.3°C 57.2°F14.0°C 84% 4.9 mph S7.9 kmh S 8.1 mph13.0 kmh 29.21 in989.2 mb 0.00 in0.0 mm 0.00 in0.0 mm 0.06 in1.5 mm
05:55 AM 61.3°F16.3°C 55.4°F13.0°C 83% 5.6 mph S9.0 kmh S 8.1 mph13.0 kmh 29.21 in989.2 mb 0.00 in0.0 mm 0.00 in0.0 mm 0.06 in1.5 mm
06:00 AM 61.5°F16.4°C 55.4°F13.0°C 83% 5.4 mph SSW8.7 kmh SSW 7.6 mph12.2 kmh 29.21 in989.2 mb 0.00 in0.0 mm 0.00 in0.0 mm 0.06 in1.5 mm
06:05 AM 61.7°F16.5°C 57.2°F14.0°C 83% 5.5 mph S8.9 kmh S 8.1 mph13.0 kmh 29.21 in989.2 mb 0.00 in0.0 mm 0.00 in0.0 mm 0.06 in1.5 mm
06:10 AM 61.7°F16.5°C 57.2°F14.0°C 83% 5.3 mph S8.5 kmh S 8.5 mph13.7 kmh 29.21 in989.2 mb 0.00 in0.0 mm 0.00 in0.0 mm 0.06 in1.5 mm
06:15 AM 61.9°F16.6°C 57.2°F14.0°C 83% 6.2 mph S10.0 kmh S 12.8 mph20.6 kmh 29.21 in989.2 mb 0.00 in0.0 mm 0.00 in0.0 mm 0.06 in1.5 mm
06:20 AM 61.9°F16.6°C 57.2°F14.0°C 83% 7.6 mph S12.2 kmh S 12.8 mph20.6 kmh 29.21 in989.2 mb 0.00 in0.0 mm 0.00 in0.0 mm 0.06 in1.5 mm
06:25 AM 61.9°F16.6°C 57.2°F14.0°C 83% 7.3 mph S11.7 kmh S 12.8 mph20.6 kmh 29.21 in989.2 mb 0.00 in0.0 mm 0.00 in0.0 mm 0.06 in1.5 mm
06:30 AM 61.9°F16.6°C 57.2°F14.0°C 83% 6.5 mph S10.5 kmh S 9.6 mph15.4 kmh 29.21 in989.2 mb 0.00 in0.0 mm 0.00 in0.0 mm 0.06 in1.5 mm
06:35 AM 61.9°F16.6°C 57.2°F14.0°C 83% 6.5 mph S10.5 kmh S 10.7 mph17.2 kmh 29.21 in989.2 mb 0.00 in0.0 mm 0.00 in0.0 mm 0.06 in1.5 mm
06:40 AM 62.1°F16.7°C 57.2°F14.0°C 83% 5.9 mph S9.5 kmh S 10.7 mph17.2 kmh 29.21 in989.2 mb 0.00 in0.0 mm 0.00 in0.0 mm 0.06 in1.5 mm
06:45 AM 62.1°F16.7°C 57.2°F14.0°C 83% 6.2 mph S10.0 kmh S 12.5 mph20.1 kmh 29.21 in989.2 mb 0.00 in0.0 mm 0.00 in0.0 mm 0.06 in1.5 mm
06:50 AM 62.2°F16.8°C 57.2°F14.0°C 83% 8.0 mph S12.9 kmh S 12.5 mph20.1 kmh 29.21 in989.2 mb 0.00 in0.0 mm 0.00 in0.0 mm 0.06 in1.5 mm
06:55 AM 62.4°F16.9°C 57.2°F14.0°C 83% 8.2 mph S13.2 kmh S 12.5 mph20.1 kmh 29.21 in989.2 mb 0.00 in0.0 mm 0.00 in0.0 mm 0.06 in1.5 mm
07:00 AM 62.6°F17.0°C 57.2°F14.0°C 82% 8.5 mph S13.7 kmh S 13.0 mph20.9 kmh 29.21 in989.2 mb 0.00 in0.0 mm 0.00 in0.0 mm 0.06 in1.5 mm
07:05 AM 62.8°F17.1°C 57.2°F14.0°C 83% 8.5 mph SSW13.7 kmh SSW 13.0 mph20.9 kmh 29.21 in989.2 mb 0.00 in0.0 mm 0.00 in0.0 mm 0.06 in1.5 mm
07:10 AM 62.8°F17.1°C 57.2°F14.0°C 83% 6.1 mph S9.8 kmh S 9.8 mph15.8 kmh 29.21 in989.2 mb 0.00 in0.0 mm 0.00 in0.0 mm 0.06 in1.5 mm
07:15 AM 63.0°F17.2°C 57.2°F14.0°C 83% 5.3 mph S8.5 kmh S 6.9 mph11.1 kmh 29.21 in989.2 mb 0.00 in0.0 mm 0.00 in0.0 mm 0.06 in1.5 mm
07:20 AM 63.0°F17.2°C 57.2°F14.0°C 83% 5.9 mph S9.5 kmh S 8.5 mph13.7 kmh 29.21 in989.2 mb 0.00 in0.0 mm 0.00 in0.0 mm 0.06 in1.5 mm
07:25 AM 63.1°F17.3°C 57.2°F14.0°C 82% 7.6 mph S12.2 kmh S 12.3 mph19.8 kmh 29.21 in989.2 mb 0.00 in0.0 mm 0.00 in0.0 mm 0.06 in1.5 mm
07:30 AM 63.3°F17.4°C 57.2°F14.0°C 82% 8.5 mph S13.7 kmh S 15.9 mph25.6 kmh 29.21 in989.2 mb 0.00 in0.0 mm 0.00 in0.0 mm 0.06 in1.5 mm
07:35 AM 63.3°F17.4°C 57.2°F14.0°C 82% 8.9 mph S14.3 kmh S 15.9 mph25.6 kmh 29.21 in989.2 mb 0.00 in0.0 mm 0.00 in0.0 mm 0.06 in1.5 mm
07:40 AM 63.5°F17.5°C 59.0°F15.0°C 82% 8.2 mph S13.2 kmh S 13.6 mph21.9 kmh 29.21 in989.2 mb 0.00 in0.0 mm 0.00 in0.0 mm 0.06 in1.5 mm
07:45 AM 63.7°F17.6°C 59.0°F15.0°C 82% 8.2 mph S13.2 kmh S 12.3 mph19.8 kmh 29.21 in989.2 mb 0.00 in0.0 mm 0.00 in0.0 mm 0.06 in1.5 mm
07:50 AM 63.7°F17.6°C 59.0°F15.0°C 82% 8.3 mph S13.4 kmh S 12.8 mph20.6 kmh 29.21 in989.2 mb 0.00 in0.0 mm 0.00 in0.0 mm 0.06 in1.5 mm
07:55 AM 64.0°F17.8°C 59.0°F15.0°C 82% 7.6 mph S12.2 kmh S 12.8 mph20.6 kmh 29.21 in989.2 mb 0.00 in0.0 mm 0.00 in0.0 mm 0.06 in1.5 mm
08:00 AM 64.0°F17.8°C 59.0°F15.0°C 82% 8.8 mph S14.2 kmh S 14.8 mph23.8 kmh 29.21 in989.2 mb 0.00 in0.0 mm 0.00 in0.0 mm 0.06 in1.5 mm
08:05 AM 64.2°F17.9°C 59.0°F15.0°C 82% 9.7 mph SSW15.6 kmh SSW 14.8 mph23.8 kmh 29.21 in989.2 mb 0.00 in0.0 mm 0.00 in0.0 mm 0.06 in1.5 mm
08:10 AM 64.2°F17.9°C 59.0°F15.0°C 81% 8.9 mph SW14.3 kmh SW 13.0 mph20.9 kmh 29.24 in990.2 mb 0.00 in0.0 mm 0.00 in0.0 mm 0.06 in1.5 mm
08:15 AM 64.2°F17.9°C 59.0°F15.0°C 81% 7.4 mph SSW11.9 kmh SSW 12.3 mph19.8 kmh 29.24 in990.2 mb 0.00 in0.0 mm 0.00 in0.0 mm 0.06 in1.5 mm
08:20 AM 64.2°F17.9°C 59.0°F15.0°C 81% 5.8 mph S9.3 kmh S 10.5 mph16.9 kmh 29.24 in990.2 mb 0.00 in0.0 mm 0.00 in0.0 mm 0.06 in1.5 mm
08:25 AM 64.0°F17.8°C 57.2°F14.0°C 81% 7.9 mph S12.7 kmh S 10.7 mph17.2 kmh 29.24 in990.2 mb 0.00 in0.0 mm 0.00 in0.0 mm 0.06 in1.5 mm
08:30 AM 64.0°F17.8°C 57.2°F14.0°C 80% 8.7 mph S14.0 kmh S 10.7 mph17.2 kmh 29.24 in990.2 mb 0.00 in0.0 mm 0.00 in0.0 mm 0.06 in1.5 mm
08:35 AM 63.9°F17.7°C 57.2°F14.0°C 80% 8.8 mph S14.2 kmh S 11.9 mph19.2 kmh 29.24 in990.2 mb 0.00 in0.0 mm 0.00 in0.0 mm 0.06 in1.5 mm
08:40 AM 63.9°F17.7°C 57.2°F14.0°C 80% 9.2 mph SSW14.8 kmh SSW 11.9 mph19.2 kmh 29.24 in990.2 mb 0.00 in0.0 mm 0.00 in0.0 mm 0.06 in1.5 mm
08:45 AM 63.7°F17.6°C 57.2°F14.0°C 79% 8.0 mph SSW12.9 kmh SSW 11.9 mph19.2 kmh 29.24 in990.2 mb 0.00 in0.0 mm 0.00 in0.0 mm 0.06 in1.5 mm
08:50 AM 63.9°F17.7°C 57.2°F14.0°C 79% 6.4 mph S10.3 kmh S 10.3 mph16.6 kmh 29.24 in990.2 mb 0.00 in0.0 mm 0.00 in0.0 mm 0.06 in1.5 mm
08:55 AM 63.9°F17.7°C 57.2°F14.0°C 79% 5.8 mph S9.3 kmh S 8.7 mph14.0 kmh 29.24 in990.2 mb 0.00 in0.0 mm 0.00 in0.0 mm 0.06 in1.5 mm
09:00 AM 64.0°F17.8°C 57.2°F14.0°C 78% 5.2 mph S8.4 kmh S 8.7 mph14.0 kmh 29.24 in990.2 mb 0.00 in0.0 mm 0.00 in0.0 mm 0.06 in1.5 mm
09:05 AM 64.2°F17.9°C 57.2°F14.0°C 78% 5.2 mph SSW8.4 kmh SSW 9.8 mph15.8 kmh 29.24 in990.2 mb 0.00 in0.0 mm 0.00 in0.0 mm 0.06 in1.5 mm
09:10 AM 64.2°F17.9°C 57.2°F14.0°C 78% 5.1 mph SSW8.2 kmh SSW 9.8 mph15.8 kmh 29.24 in990.2 mb 0.00 in0.0 mm 0.00 in0.0 mm 0.06 in1.5 mm
09:15 AM 64.4°F18.0°C 57.2°F14.0°C 78% 5.5 mph SSW8.9 kmh SSW 10.3 mph16.6 kmh 29.24 in990.2 mb 0.00 in0.0 mm 0.00 in0.0 mm 0.06 in1.5 mm
09:20 AM 64.6°F18.1°C 57.2°F14.0°C 77% 7.8 mph S12.6 kmh S 15.4 mph24.8 kmh 29.24 in990.2 mb 0.00 in0.0 mm 0.00 in0.0 mm 0.06 in1.5 mm
09:25 AM 64.8°F18.2°C 57.2°F14.0°C 77% 7.7 mph S12.4 kmh S 15.4 mph24.8 kmh 29.24 in990.2 mb 0.00 in0.0 mm 0.00 in0.0 mm 0.06 in1.5 mm
09:30 AM 65.1°F18.4°C 57.2°F14.0°C 77% 6.9 mph S11.1 kmh S 12.5 mph20.1 kmh 29.24 in990.2 mb 0.00 in0.0 mm 0.00 in0.0 mm 0.06 in1.5 mm
09:35 AM 66.7°F19.3°C 59.0°F15.0°C 75% 8.5 mph SSW13.7 kmh SSW 12.8 mph20.6 kmh 29.24 in990.2 mb 0.00 in0.0 mm 0.00 in0.0 mm 0.06 in1.5 mm
09:40 AM 66.7°F19.3°C 59.0°F15.0°C 74% 8.8 mph SSW14.2 kmh SSW 12.8 mph20.6 kmh 29.24 in990.2 mb 0.00 in0.0 mm 0.00 in0.0 mm 0.06 in1.5 mm
09:45 AM 66.4°F19.1°C 57.2°F14.0°C 74% 7.4 mph SSW11.9 kmh SSW 12.5 mph20.1 kmh 29.24 in990.2 mb 0.00 in0.0 mm 0.00 in0.0 mm 0.06 in1.5 mm
09:50 AM 66.4°F19.1°C 57.2°F14.0°C 74% 6.5 mph S10.5 kmh S 10.3 mph16.6 kmh 29.24 in990.2 mb 0.00 in0.0 mm 0.00 in0.0 mm 0.06 in1.5 mm
09:55 AM 66.4°F19.1°C 57.2°F14.0°C 74% 7.3 mph SSW11.7 kmh SSW 15.4 mph24.8 kmh 29.24 in990.2 mb 0.00 in0.0 mm 0.00 in0.0 mm 0.06 in1.5 mm
10:00 AM 66.2°F19.0°C 57.2°F14.0°C 74% 8.2 mph SW13.2 kmh SW 15.4 mph24.8 kmh 29.24 in990.2 mb 0.00 in0.0 mm 0.00 in0.0 mm 0.06 in1.5 mm
10:05 AM 66.4°F19.1°C 57.2°F14.0°C 74% 6.8 mph SSW10.9 kmh SSW 10.7 mph17.2 kmh 29.24 in990.2 mb 0.00 in0.0 mm 0.00 in0.0 mm 0.06 in1.5 mm
10:10 AM 66.2°F19.0°C 57.2°F14.0°C 74% 6.9 mph SSW11.1 kmh SSW 10.5 mph16.9 kmh 29.24 in990.2 mb 0.00 in0.0 mm 0.00 in0.0 mm 0.06 in1.5 mm
10:15 AM 66.6°F19.2°C 59.0°F15.0°C 74% 8.3 mph SW13.4 kmh SW 13.4 mph21.6 kmh 29.24 in990.2 mb 0.00 in0.0 mm 0.00 in0.0 mm 0.06 in1.5 mm
10:20 AM 66.7°F19.3°C 57.2°F14.0°C 73% 10.4 mph SSW16.7 kmh SSW 15.7 mph25.3 kmh 29.24 in990.2 mb 0.00 in0.0 mm 0.00 in0.0 mm 0.06 in1.5 mm
10:25 AM 66.6°F19.2°C 57.2°F14.0°C 73% 8.8 mph SSW14.2 kmh SSW 15.7 mph25.3 kmh 29.24 in990.2 mb 0.00 in0.0 mm 0.00 in0.0 mm 0.06 in1.5 mm
10:30 AM 66.6°F19.2°C 57.2°F14.0°C 73% 6.7 mph SSW10.8 kmh SSW 9.4 mph15.1 kmh 29.24 in990.2 mb 0.00 in0.0 mm 0.00 in0.0 mm 0.06 in1.5 mm
10:35 AM 66.6°F19.2°C 57.2°F14.0°C 73% 6.9 mph SSW11.1 kmh SSW 8.7 mph14.0 kmh 29.24 in990.2 mb 0.00 in0.0 mm 0.00 in0.0 mm 0.06 in1.5 mm
10:40 AM 66.7°F19.3°C 57.2°F14.0°C 72% 7.2 mph SSW11.6 kmh SSW 14.1 mph22.7 kmh 29.24 in990.2 mb 0.00 in0.0 mm 0.00 in0.0 mm 0.06 in1.5 mm
10:45 AM 66.7°F19.3°C 57.2°F14.0°C 72% 7.8 mph S12.6 kmh S 14.1 mph22.7 kmh 29.24 in990.2 mb 0.00 in0.0 mm 0.00 in0.0 mm 0.06 in1.5 mm
10:50 AM 66.6°F19.2°C 57.2°F14.0°C 72% 8.2 mph S13.2 kmh S 14.1 mph22.7 kmh 29.24 in990.2 mb 0.00 in0.0 mm 0.00 in0.0 mm 0.06 in1.5 mm
10:55 AM 66.4°F19.1°C 57.2°F14.0°C 73% 7.3 mph SSW11.7 kmh SSW 11.0 mph17.7 kmh 29.27 in991.2 mb 0.00 in0.0 mm 0.00 in0.0 mm 0.06 in1.5 mm
11:00 AM 66.4°F19.1°C 57.2°F14.0°C 73% 9.5 mph SW15.3 kmh SW 19.9 mph32.0 kmh 29.27 in991.2 mb 0.00 in0.0 mm 0.00 in0.0 mm 0.06 in1.5 mm
11:05 AM 66.2°F19.0°C 57.2°F14.0°C 72% 10.0 mph SW16.1 kmh SW 19.9 mph32.0 kmh 29.27 in991.2 mb 0.00 in0.0 mm 0.00 in0.0 mm 0.06 in1.5 mm
11:10 AM 66.2°F19.0°C 57.2°F14.0°C 72% 7.0 mph S11.3 kmh S 10.7 mph17.2 kmh 29.27 in991.2 mb 0.00 in0.0 mm 0.00 in0.0 mm 0.06 in1.5 mm
11:15 AM 66.2°F19.0°C 57.2°F14.0°C 73% 6.8 mph S10.9 kmh S 10.7 mph17.2 kmh 29.27 in991.2 mb 0.00 in0.0 mm 0.00 in0.0 mm 0.06 in1.5 mm
11:20 AM 66.4°F19.1°C 57.2°F14.0°C 72% 8.7 mph SSW14.0 kmh SSW 19.0 mph30.6 kmh 29.27 in991.2 mb 0.00 in0.0 mm 0.00 in0.0 mm 0.06 in1.5 mm
11:25 AM 66.6°F19.2°C 57.2°F14.0°C 72% 10.3 mph SSW16.6 kmh SSW 19.0 mph30.6 kmh 29.27 in991.2 mb 0.00 in0.0 mm 0.00 in0.0 mm 0.06 in1.5 mm
11:30 AM 67.1°F19.5°C 59.0°F15.0°C 72% 9.4 mph S15.1 kmh S 13.4 mph21.6 kmh 29.27 in991.2 mb 0.00 in0.0 mm 0.00 in0.0 mm 0.06 in1.5 mm
11:35 AM 68.0°F20.0°C 59.0°F15.0°C 71% 8.0 mph S12.9 kmh S 13.0 mph20.9 kmh 29.27 in991.2 mb 0.00 in0.0 mm 0.00 in0.0 mm 0.06 in1.5 mm
11:40 AM 68.2°F20.1°C 59.0°F15.0°C 71% 6.0 mph S9.7 kmh S 10.1 mph16.3 kmh 29.27 in991.2 mb 0.00 in0.0 mm 0.00 in0.0 mm 0.06 in1.5 mm
11:45 AM 67.8°F19.9°C 59.0°F15.0°C 72% 6.6 mph SSW10.6 kmh SSW 11.0 mph17.7 kmh 29.27 in991.2 mb 0.00 in0.0 mm 0.00 in0.0 mm 0.06 in1.5 mm
11:50 AM 68.2°F20.1°C 59.0°F15.0°C 71% 7.3 mph SW11.7 kmh SW 11.0 mph17.7 kmh 29.27 in991.2 mb 0.00 in0.0 mm 0.00 in0.0 mm 0.06 in1.5 mm
11:55 AM 68.0°F20.0°C 59.0°F15.0°C 71% 7.2 mph SSW11.6 kmh SSW 10.3 mph16.6 kmh 29.27 in991.2 mb 0.00 in0.0 mm 0.00 in0.0 mm 0.06 in1.5 mm
12:00 PM 70.0°F21.1°C 59.0°F15.0°C 70% 8.2 mph SSW13.2 kmh SSW 13.2 mph21.2 kmh 29.27 in991.2 mb 0.00 in0.0 mm 0.00 in0.0 mm 0.06 in1.5 mm
12:05 PM 71.6°F22.0°C 60.8°F16.0°C 67% 8.6 mph SSW13.8 kmh SSW 13.2 mph21.2 kmh 29.27 in991.2 mb 0.00 in0.0 mm 0.00 in0.0 mm 0.06 in1.5 mm
12:10 PM 70.2°F21.2°C 59.0°F15.0°C 69% 7.7 mph SW12.4 kmh SW 13.2 mph21.2 kmh 29.27 in991.2 mb 0.00 in0.0 mm 0.00 in0.0 mm 0.06 in1.5 mm
12:15 PM 69.1°F20.6°C 59.0°F15.0°C 70% 6.5 mph S10.5 kmh S 11.0 mph17.7 kmh 29.27 in991.2 mb 0.00 in0.0 mm 0.00 in0.0 mm 0.06 in1.5 mm
12:20 PM 68.7°F20.4°C 59.0°F15.0°C 71% 7.5 mph S12.1 kmh S 13.4 mph21.6 kmh 29.27 in991.2 mb 0.00 in0.0 mm 0.00 in0.0 mm 0.06 in1.5 mm
12:25 PM 68.5°F20.3°C 59.0°F15.0°C 71% 7.7 mph SW12.4 kmh SW 13.4 mph21.6 kmh 29.27 in991.2 mb 0.00 in0.0 mm 0.00 in0.0 mm 0.06 in1.5 mm
12:30 PM 68.4°F20.2°C 59.0°F15.0°C 71% 8.2 mph SW13.2 kmh SW 13.0 mph20.9 kmh 29.27 in991.2 mb 0.00 in0.0 mm 0.00 in0.0 mm 0.06 in1.5 mm
12:35 PM 68.5°F20.3°C 59.0°F15.0°C 72% 8.0 mph SW12.9 kmh SW 11.0 mph17.7 kmh 29.27 in991.2 mb 0.00 in0.0 mm 0.00 in0.0 mm 0.06 in1.5 mm
12:40 PM 68.2°F20.1°C 59.0°F15.0°C 72% 7.3 mph SSW11.7 kmh SSW 11.0 mph17.7 kmh 29.27 in991.2 mb 0.00 in0.0 mm 0.00 in0.0 mm 0.06 in1.5 mm
12:45 PM 67.6°F19.8°C 59.0°F15.0°C 73% 6.7 mph SW10.8 kmh SW 10.7 mph17.2 kmh 29.27 in991.2 mb 0.00 in0.0 mm 0.00 in0.0 mm 0.06 in1.5 mm
12:50 PM 67.5°F19.7°C 59.0°F15.0°C 73% 6.9 mph SW11.1 kmh SW 10.7 mph17.2 kmh 29.27 in991.2 mb 0.00 in0.0 mm 0.00 in0.0 mm 0.06 in1.5 mm
12:55 PM 66.9°F19.4°C 57.2°F14.0°C 73% 6.2 mph S10.0 kmh S 10.1 mph16.3 kmh 29.27 in991.2 mb 0.00 in0.0 mm 0.00 in0.0 mm 0.06 in1.5 mm
01:00 PM 66.2°F19.0°C 59.0°F15.0°C 75% 5.8 mph S9.3 kmh S 8.5 mph13.7 kmh 29.27 in991.2 mb 0.06 in1.5 mm 0.07 in1.8 mm 0.11 in2.8 mm
01:05 PM 65.8°F18.8°C 57.2°F14.0°C 76% 6.1 mph S9.8 kmh S 8.5 mph13.7 kmh 29.27 in991.2 mb 0.06 in1.5 mm 0.00 in0.0 mm 0.11 in2.8 mm
01:10 PM 65.7°F18.7°C 59.0°F15.0°C 77% 6.0 mph S9.7 kmh S 8.5 mph13.7 kmh 29.30 in992.2 mb 0.06 in1.5 mm 0.00 in0.0 mm 0.11 in2.8 mm
01:15 PM 66.0°F18.9°C 59.0°F15.0°C 77% 5.0 mph SSW8.0 kmh SSW 8.1 mph13.0 kmh 29.30 in992.2 mb 0.06 in1.5 mm 0.00 in0.0 mm 0.11 in2.8 mm
01:20 PM 67.5°F19.7°C 59.0°F15.0°C 76% 4.6 mph S7.4 kmh S 7.4 mph11.9 kmh 29.30 in992.2 mb 0.06 in1.5 mm 0.00 in0.0 mm 0.11 in2.8 mm
01:25 PM 69.4°F20.8°C 60.8°F16.0°C 74% 5.5 mph S8.9 kmh S 8.1 mph13.0 kmh 29.30 in992.2 mb 0.06 in1.5 mm 0.00 in0.0 mm 0.11 in2.8 mm
01:30 PM 68.2°F20.1°C 60.8°F16.0°C 75% 5.8 mph SSW9.3 kmh SSW 8.1 mph13.0 kmh 29.30 in992.2 mb 0.06 in1.5 mm 0.00 in0.0 mm 0.11 in2.8 mm
01:35 PM 67.8°F19.9°C 60.8°F16.0°C 76% 6.1 mph SSW9.8 kmh SSW 10.5 mph16.9 kmh 29.30 in992.2 mb 0.06 in1.5 mm 0.00 in0.0 mm 0.11 in2.8 mm
01:40 PM 67.1°F19.5°C 59.0°F15.0°C 76% 6.4 mph SSW10.3 kmh SSW 10.5 mph16.9 kmh 29.30 in992.2 mb 0.06 in1.5 mm 0.00 in0.0 mm 0.11 in2.8 mm
01:45 PM 66.7°F19.3°C 59.0°F15.0°C 76% 6.5 mph SW10.5 kmh SW 10.5 mph16.9 kmh 29.30 in992.2 mb 0.06 in1.5 mm 0.00 in0.0 mm 0.11 in2.8 mm
01:50 PM 66.6°F19.2°C 59.0°F15.0°C 77% 7.3 mph SW11.7 kmh SW 13.2 mph21.2 kmh 29.30 in992.2 mb 0.06 in1.5 mm 0.00 in0.0 mm 0.11 in2.8 mm
01:55 PM 66.4°F19.1°C 59.0°F15.0°C 77% 7.7 mph SSW12.4 kmh SSW 13.2 mph21.2 kmh 29.30 in992.2 mb 0.06 in1.5 mm 0.00 in0.0 mm 0.11 in2.8 mm
02:00 PM 66.2°F19.0°C 59.0°F15.0°C 77% 7.9 mph SSW12.7 kmh SSW 12.8 mph20.6 kmh 29.30 in992.2 mb 0.00 in0.0 mm 0.00 in0.0 mm 0.11 in2.8 mm
02:05 PM 66.9°F19.4°C 59.0°F15.0°C 77% 7.8 mph SW12.6 kmh SW 12.8 mph20.6 kmh 29.30 in992.2 mb 0.00 in0.0 mm 0.00 in0.0 mm 0.11 in2.8 mm
02:10 PM 68.4°F20.2°C 60.8°F16.0°C 76% 8.0 mph SW12.9 kmh SW 9.4 mph15.1 kmh 29.30 in992.2 mb 0.00 in0.0 mm 0.00 in0.0 mm 0.11 in2.8 mm
02:15 PM 68.5°F20.3°C 60.8°F16.0°C 76% 7.9 mph SSW12.7 kmh SSW 10.5 mph16.9 kmh 29.30 in992.2 mb 0.00 in0.0 mm 0.00 in0.0 mm 0.11 in2.8 mm
02:20 PM 68.5°F20.3°C 60.8°F16.0°C 76% 7.5 mph SSW12.1 kmh SSW 10.5 mph16.9 kmh 29.30 in992.2 mb 0.00 in0.0 mm 0.00 in0.0 mm 0.11 in2.8 mm
02:25 PM 68.4°F20.2°C 60.8°F16.0°C 76% 7.7 mph SW12.4 kmh SW 16.3 mph26.2 kmh 29.30 in992.2 mb 0.00 in0.0 mm 0.00 in0.0 mm 0.11 in2.8 mm
02:30 PM 68.0°F20.0°C 60.8°F16.0°C 76% 7.5 mph WSW12.1 kmh WSW 16.3 mph26.2 kmh 29.30 in992.2 mb 0.00 in0.0 mm 0.00 in0.0 mm 0.11 in2.8 mm
02:35 PM 68.5°F20.3°C 60.8°F16.0°C 76% 7.4 mph SW11.9 kmh SW 16.3 mph26.2 kmh 29.30 in992.2 mb 0.00 in0.0 mm 0.00 in0.0 mm 0.11 in2.8 mm
02:40 PM 68.4°F20.2°C 60.8°F16.0°C 76% 8.0 mph SW12.9 kmh SW 15.2 mph24.5 kmh 29.30 in992.2 mb 0.00 in0.0 mm 0.00 in0.0 mm 0.11 in2.8 mm
02:45 PM 68.7°F20.4°C 60.8°F16.0°C 76% 8.7 mph SW14.0 kmh SW 15.2 mph24.5 kmh 29.30 in992.2 mb 0.00 in0.0 mm 0.00 in0.0 mm 0.11 in2.8 mm
02:50 PM 68.0°F20.0°C 60.8°F16.0°C 76% 8.0 mph SSW12.9 kmh SSW 15.2 mph24.5 kmh 29.30 in992.2 mb 0.00 in0.0 mm 0.00 in0.0 mm 0.11 in2.8 mm
02:55 PM 67.5°F19.7°C 60.8°F16.0°C 77% 6.2 mph SSW10.0 kmh SSW 10.5 mph16.9 kmh 29.33 in993.2 mb 0.00 in0.0 mm 0.00 in0.0 mm 0.11 in2.8 mm
03:00 PM 67.5°F19.7°C 60.8°F16.0°C 77% 5.3 mph SW8.5 kmh SW 8.1 mph13.0 kmh 29.33 in993.2 mb 0.00 in0.0 mm 0.00 in0.0 mm 0.11 in2.8 mm
03:05 PM 67.1°F19.5°C 60.8°F16.0°C 77% 5.1 mph WSW8.2 kmh WSW 8.1 mph13.0 kmh 29.33 in993.2 mb 0.00 in0.0 mm 0.00 in0.0 mm 0.11 in2.8 mm
03:10 PM 66.9°F19.4°C 59.0°F15.0°C 77% 5.8 mph SW9.3 kmh SW 13.6 mph21.9 kmh 29.33 in993.2 mb 0.00 in0.0 mm 0.00 in0.0 mm 0.11 in2.8 mm
03:15 PM 66.6°F19.2°C 59.0°F15.0°C 77% 7.6 mph WSW12.2 kmh WSW 13.6 mph21.9 kmh 29.33 in993.2 mb 0.00 in0.0 mm 0.00 in0.0 mm 0.11 in2.8 mm
03:25 PM 67.1°F19.5°C 60.8°F16.0°C 77% 9.2 mph SSW14.8 kmh SSW 14.8 mph23.8 kmh 29.33 in993.2 mb 0.00 in0.0 mm 0.00 in0.0 mm 0.11 in2.8 mm
03:30 PM 66.9°F19.4°C 59.0°F15.0°C 77% 8.3 mph SSW13.4 kmh SSW 14.8 mph23.8 kmh 29.33 in993.2 mb 0.00 in0.0 mm 0.00 in0.0 mm 0.11 in2.8 mm
03:35 PM 67.1°F19.5°C 60.8°F16.0°C 77% 5.8 mph SW9.3 kmh SW 13.4 mph21.6 kmh 29.33 in993.2 mb 0.00 in0.0 mm 0.00 in0.0 mm 0.11 in2.8 mm
03:40 PM 66.4°F19.1°C 59.0°F15.0°C 77% 5.4 mph WSW8.7 kmh WSW 13.4 mph21.6 kmh 29.33 in993.2 mb 0.00 in0.0 mm 0.00 in0.0 mm 0.11 in2.8 mm
03:45 PM 65.5°F18.6°C 59.0°F15.0°C 78% 6.7 mph SW10.8 kmh SW 11.0 mph17.7 kmh 29.33 in993.2 mb 0.06 in1.5 mm 0.72 in18.3 mm 0.17 in4.3 mm
03:50 PM 65.1°F18.4°C 59.0°F15.0°C 79% 6.9 mph SW11.1 kmh SW 11.0 mph17.7 kmh 29.33 in993.2 mb 0.06 in1.5 mm 0.00 in0.0 mm 0.17 in4.3 mm
03:55 PM 64.8°F18.2°C 59.0°F15.0°C 79% 7.4 mph SW11.9 kmh SW 11.9 mph19.2 kmh 29.36 in994.2 mb 0.06 in1.5 mm 0.00 in0.0 mm 0.17 in4.3 mm
04:00 PM 64.8°F18.2°C 59.0°F15.0°C 80% 7.2 mph WSW11.6 kmh WSW 11.9 mph19.2 kmh 29.36 in994.2 mb 0.06 in1.5 mm 0.00 in0.0 mm 0.17 in4.3 mm
04:05 PM 64.6°F18.1°C 59.0°F15.0°C 80% 6.2 mph WSW10.0 kmh WSW 14.8 mph23.8 kmh 29.36 in994.2 mb 0.06 in1.5 mm 0.00 in0.0 mm 0.17 in4.3 mm
04:10 PM 64.8°F18.2°C 59.0°F15.0°C 80% 7.6 mph SW12.2 kmh SW 14.8 mph23.8 kmh 29.36 in994.2 mb 0.06 in1.5 mm 0.00 in0.0 mm 0.17 in4.3 mm
04:15 PM 64.6°F18.1°C 59.0°F15.0°C 80% 6.1 mph SW9.8 kmh SW 11.9 mph19.2 kmh 29.36 in994.2 mb 0.11 in2.8 mm 0.60 in15.2 mm 0.22 in5.6 mm
04:20 PM 64.2°F17.9°C 59.0°F15.0°C 80% 5.4 mph SW8.7 kmh SW 11.2 mph18.0 kmh 29.36 in994.2 mb 0.11 in2.8 mm 0.00 in0.0 mm 0.22 in5.6 mm
04:25 PM 64.0°F17.8°C 57.2°F14.0°C 81% 6.1 mph SW9.8 kmh SW 11.2 mph18.0 kmh 29.36 in994.2 mb 0.11 in2.8 mm 0.00 in0.0 mm 0.22 in5.6 mm
04:30 PM 63.9°F17.7°C 57.2°F14.0°C 81% 6.4 mph SW10.3 kmh SW 10.3 mph16.6 kmh 29.36 in994.2 mb 0.11 in2.8 mm 0.00 in0.0 mm 0.22 in5.6 mm
04:35 PM 63.9°F17.7°C 57.2°F14.0°C 81% 8.1 mph WSW13.0 kmh WSW 11.0 mph17.7 kmh 29.36 in994.2 mb 0.11 in2.8 mm 0.00 in0.0 mm 0.22 in5.6 mm
04:40 PM 63.5°F17.5°C 57.2°F14.0°C 81% 7.5 mph WSW12.1 kmh WSW 11.0 mph17.7 kmh 29.39 in995.3 mb 0.11 in2.8 mm 0.00 in0.0 mm 0.22 in5.6 mm
04:45 PM 63.3°F17.4°C 57.2°F14.0°C 81% 6.8 mph WSW10.9 kmh WSW 11.0 mph17.7 kmh 29.39 in995.3 mb 0.06 in1.5 mm 0.00 in0.0 mm 0.22 in5.6 mm
04:50 PM 63.3°F17.4°C 57.2°F14.0°C 81% 7.0 mph SW11.3 kmh SW 11.0 mph17.7 kmh 29.39 in995.3 mb 0.06 in1.5 mm 0.00 in0.0 mm 0.22 in5.6 mm
04:55 PM 63.3°F17.4°C 57.2°F14.0°C 81% 6.9 mph SW11.1 kmh SW 13.6 mph21.9 kmh 29.39 in995.3 mb 0.06 in1.5 mm 0.00 in0.0 mm 0.22 in5.6 mm
05:00 PM 63.1°F17.3°C 57.2°F14.0°C 81% 6.8 mph SW10.9 kmh SW 13.6 mph21.9 kmh 29.39 in995.3 mb 0.06 in1.5 mm 0.00 in0.0 mm 0.22 in5.6 mm
05:05 PM 63.0°F17.2°C 57.2°F14.0°C 82% 5.4 mph SW8.7 kmh SW 13.6 mph21.9 kmh 29.39 in995.3 mb 0.06 in1.5 mm 0.00 in0.0 mm 0.22 in5.6 mm
05:10 PM 63.0°F17.2°C 57.2°F14.0°C 82% 5.0 mph SW8.0 kmh SW 11.0 mph17.7 kmh 29.39 in995.3 mb 0.06 in1.5 mm 0.00 in0.0 mm 0.22 in5.6 mm
05:15 PM 63.0°F17.2°C 57.2°F14.0°C 82% 5.5 mph SW8.9 kmh SW 11.0 mph17.7 kmh 29.39 in995.3 mb 0.00 in0.0 mm 0.00 in0.0 mm 0.22 in5.6 mm
05:20 PM 62.8°F17.1°C 57.2°F14.0°C 82% 5.8 mph SSW9.3 kmh SSW 8.9 mph14.3 kmh 29.39 in995.3 mb 0.00 in0.0 mm 0.00 in0.0 mm 0.22 in5.6 mm
05:25 PM 62.8°F17.1°C 57.2°F14.0°C 82% 6.5 mph SSW10.5 kmh SSW 8.7 mph14.0 kmh 29.41 in995.9 mb 0.00 in0.0 mm 0.00 in0.0 mm 0.22 in5.6 mm
05:30 PM 62.6°F17.0°C 57.2°F14.0°C 82% 5.5 mph SSW8.9 kmh SSW 8.1 mph13.0 kmh 29.41 in995.9 mb 0.00 in0.0 mm 0.00 in0.0 mm 0.22 in5.6 mm
05:35 PM 62.6°F17.0°C 57.2°F14.0°C 82% 7.1 mph SW11.4 kmh SW 15.9 mph25.6 kmh 29.41 in995.9 mb 0.00 in0.0 mm 0.00 in0.0 mm 0.22 in5.6 mm
05:40 PM 62.4°F16.9°C 57.2°F14.0°C 82% 8.1 mph SW13.0 kmh SW 15.9 mph25.6 kmh 29.41 in995.9 mb 0.00 in0.0 mm 0.00 in0.0 mm 0.22 in5.6 mm
05:45 PM 62.2°F16.8°C 57.2°F14.0°C 83% 7.0 mph SW11.3 kmh SW 10.1 mph16.3 kmh 29.41 in995.9 mb 0.00 in0.0 mm 0.00 in0.0 mm 0.22 in5.6 mm
05:50 PM 62.2°F16.8°C 57.2°F14.0°C 82% 7.3 mph SW11.7 kmh SW 11.4 mph18.3 kmh 29.41 in995.9 mb 0.00 in0.0 mm 0.00 in0.0 mm 0.22 in5.6 mm
05:55 PM 62.1°F16.7°C 57.2°F14.0°C 83% 6.8 mph SW10.9 kmh SW 11.4 mph18.3 kmh 29.41 in995.9 mb 0.00 in0.0 mm 0.00 in0.0 mm 0.22 in5.6 mm
06:00 PM 62.2°F16.8°C 57.2°F14.0°C 83% 6.2 mph SW10.0 kmh SW 10.7 mph17.2 kmh 29.41 in995.9 mb 0.00 in0.0 mm 0.00 in0.0 mm 0.22 in5.6 mm
06:05 PM 62.1°F16.7°C 57.2°F14.0°C 83% 6.8 mph WSW10.9 kmh WSW 11.9 mph19.2 kmh 29.41 in995.9 mb 0.00 in0.0 mm 0.00 in0.0 mm 0.22 in5.6 mm
06:10 PM 62.1°F16.7°C 57.2°F14.0°C 82% 6.9 mph SW11.1 kmh SW 11.9 mph19.2 kmh 29.41 in995.9 mb 0.00 in0.0 mm 0.00 in0.0 mm 0.22 in5.6 mm
06:15 PM 62.1°F16.7°C 57.2°F14.0°C 82% 7.0 mph SW11.3 kmh SW 11.2 mph18.0 kmh 29.41 in995.9 mb 0.00 in0.0 mm 0.00 in0.0 mm 0.22 in5.6 mm
06:20 PM 61.9°F16.6°C 57.2°F14.0°C 82% 6.3 mph SW10.1 kmh SW 8.7 mph14.0 kmh 29.41 in995.9 mb 0.00 in0.0 mm 0.00 in0.0 mm 0.22 in5.6 mm
06:25 PM 61.9°F16.6°C 57.2°F14.0°C 82% 4.7 mph SW7.6 kmh SW 7.8 mph12.6 kmh 29.45 in997.3 mb 0.00 in0.0 mm 0.00 in0.0 mm 0.22 in5.6 mm
06:30 PM 61.7°F16.5°C 57.2°F14.0°C 82% 4.7 mph SW7.6 kmh SW 8.5 mph13.7 kmh 29.45 in997.3 mb 0.00 in0.0 mm 0.00 in0.0 mm 0.22 in5.6 mm
06:35 PM 61.7°F16.5°C 57.2°F14.0°C 82% 4.6 mph SW7.4 kmh SW 8.5 mph13.7 kmh 29.45 in997.3 mb 0.00 in0.0 mm 0.00 in0.0 mm 0.22 in5.6 mm
06:40 PM 61.7°F16.5°C 57.2°F14.0°C 82% 5.3 mph WSW8.5 kmh WSW 8.5 mph13.7 kmh 29.45 in997.3 mb 0.00 in0.0 mm 0.00 in0.0 mm 0.22 in5.6 mm
06:45 PM 61.7°F16.5°C 57.2°F14.0°C 82% 6.5 mph SW10.5 kmh SW 13.0 mph20.9 kmh 29.45 in997.3 mb 0.00 in0.0 mm 0.00 in0.0 mm 0.22 in5.6 mm
06:50 PM 61.5°F16.4°C 55.4°F13.0°C 82% 5.9 mph SW9.5 kmh SW 13.0 mph20.9 kmh 29.45 in997.3 mb 0.00 in0.0 mm 0.00 in0.0 mm 0.22 in5.6 mm
06:55 PM 61.3°F16.3°C 55.4°F13.0°C 82% 4.8 mph SSW7.7 kmh SSW 8.5 mph13.7 kmh 29.47 in998.0 mb 0.00 in0.0 mm 0.00 in0.0 mm 0.22 in5.6 mm
07:00 PM 61.3°F16.3°C 55.4°F13.0°C 82% 6.1 mph SW9.8 kmh SW 10.3 mph16.6 kmh 29.47 in998.0 mb 0.00 in0.0 mm 0.00 in0.0 mm 0.22 in5.6 mm
07:05 PM 61.3°F16.3°C 55.4°F13.0°C 82% 6.7 mph SW10.8 kmh SW 10.3 mph16.6 kmh 29.47 in998.0 mb 0.00 in0.0 mm 0.00 in0.0 mm 0.22 in5.6 mm
07:10 PM 61.2°F16.2°C 55.4°F13.0°C 82% 5.7 mph SW9.2 kmh SW 8.1 mph13.0 kmh 29.47 in998.0 mb 0.00 in0.0 mm 0.00 in0.0 mm 0.22 in5.6 mm
07:15 PM 61.2°F16.2°C 55.4°F13.0°C 82% 5.3 mph WSW8.5 kmh WSW 8.1 mph13.0 kmh 29.47 in998.0 mb 0.00 in0.0 mm 0.00 in0.0 mm 0.22 in5.6 mm
07:20 PM 61.0°F16.1°C 55.4°F13.0°C 82% 5.5 mph SW8.9 kmh SW 9.8 mph15.8 kmh 29.47 in998.0 mb 0.00 in0.0 mm 0.00 in0.0 mm 0.22 in5.6 mm
07:25 PM 61.0°F16.1°C 55.4°F13.0°C 82% 5.4 mph SW8.7 kmh SW 9.8 mph15.8 kmh 29.47 in998.0 mb 0.00 in0.0 mm 0.00 in0.0 mm 0.22 in5.6 mm
07:30 PM 60.8°F16.0°C 55.4°F13.0°C 82% 4.4 mph SW7.1 kmh SW 8.1 mph13.0 kmh 29.47 in998.0 mb 0.00 in0.0 mm 0.00 in0.0 mm 0.22 in5.6 mm
07:35 PM 60.8°F16.0°C 55.4°F13.0°C 82% 4.7 mph SW7.6 kmh SW 8.1 mph13.0 kmh 29.47 in998.0 mb 0.00 in0.0 mm 0.00 in0.0 mm 0.22 in5.6 mm
07:40 PM 60.6°F15.9°C 55.4°F13.0°C 82% 5.8 mph W9.3 kmh W 11.4 mph18.3 kmh 29.47 in998.0 mb 0.00 in0.0 mm 0.00 in0.0 mm 0.22 in5.6 mm
07:45 PM 60.6°F15.9°C 55.4°F13.0°C 82% 6.0 mph WSW9.7 kmh WSW 11.4 mph18.3 kmh 29.47 in998.0 mb 0.00 in0.0 mm 0.00 in0.0 mm 0.22 in5.6 mm
07:50 PM 60.4°F15.8°C 55.4°F13.0°C 82% 4.7 mph SW7.6 kmh SW 8.1 mph13.0 kmh 29.47 in998.0 mb 0.00 in0.0 mm 0.00 in0.0 mm 0.22 in5.6 mm
07:55 PM 60.4°F15.8°C 55.4°F13.0°C 82% 5.4 mph WSW8.7 kmh WSW 10.7 mph17.2 kmh 29.47 in998.0 mb 0.00 in0.0 mm 0.00 in0.0 mm 0.22 in5.6 mm
08:00 PM 60.4°F15.8°C 55.4°F13.0°C 82% 6.3 mph W10.1 kmh W 10.7 mph17.2 kmh 29.47 in998.0 mb 0.00 in0.0 mm 0.00 in0.0 mm 0.22 in5.6 mm
08:05 PM 60.3°F15.7°C 55.4°F13.0°C 82% 6.1 mph W9.8 kmh W 12.8 mph20.6 kmh 29.47 in998.0 mb 0.00 in0.0 mm 0.00 in0.0 mm 0.22 in5.6 mm
08:10 PM 60.3°F15.7°C 55.4°F13.0°C 82% 5.5 mph SW8.9 kmh SW 12.8 mph20.6 kmh 29.50 in999.0 mb 0.00 in0.0 mm 0.00 in0.0 mm 0.22 in5.6 mm
08:15 PM 60.1°F15.6°C 55.4°F13.0°C 82% 3.8 mph SW6.1 kmh SW 7.6 mph12.2 kmh 29.50 in999.0 mb 0.00 in0.0 mm 0.00 in0.0 mm 0.22 in5.6 mm
08:20 PM 60.1°F15.6°C 55.4°F13.0°C 81% 3.8 mph WSW6.1 kmh WSW 7.6 mph12.2 kmh 29.50 in999.0 mb 0.00 in0.0 mm 0.00 in0.0 mm 0.22 in5.6 mm
08:25 PM 60.3°F15.7°C 55.4°F13.0°C 81% 5.5 mph WSW8.9 kmh WSW 12.1 mph19.5 kmh 29.50 in999.0 mb 0.00 in0.0 mm 0.00 in0.0 mm 0.22 in5.6 mm
08:30 PM 60.3°F15.7°C 55.4°F13.0°C 81% 5.9 mph SW9.5 kmh SW 12.1 mph19.5 kmh 29.50 in999.0 mb 0.00 in0.0 mm 0.00 in0.0 mm 0.22 in5.6 mm
08:35 PM 60.1°F15.6°C 55.4°F13.0°C 81% 5.5 mph SW8.9 kmh SW 10.7 mph17.2 kmh 29.50 in999.0 mb 0.00 in0.0 mm 0.00 in0.0 mm 0.22 in5.6 mm
08:40 PM 60.1°F15.6°C 55.4°F13.0°C 81% 5.2 mph SW8.4 kmh SW 10.7 mph17.2 kmh 29.50 in999.0 mb 0.00 in0.0 mm 0.00 in0.0 mm 0.22 in5.6 mm
08:45 PM 60.1°F15.6°C 55.4°F13.0°C 81% 4.7 mph SW7.6 kmh SW 9.6 mph15.4 kmh 29.50 in999.0 mb 0.00 in0.0 mm 0.00 in0.0 mm 0.22 in5.6 mm
08:50 PM 59.9°F15.5°C 55.4°F13.0°C 81% 4.5 mph SW7.2 kmh SW 7.6 mph12.2 kmh 29.50 in999.0 mb 0.00 in0.0 mm 0.00 in0.0 mm 0.22 in5.6 mm
08:55 PM 59.9°F15.5°C 55.4°F13.0°C 81% 4.8 mph SW7.7 kmh SW 7.6 mph12.2 kmh 29.50 in999.0 mb 0.00 in0.0 mm 0.00 in0.0 mm 0.22 in5.6 mm
09:00 PM 59.9°F15.5°C 55.4°F13.0°C 80% 4.6 mph WSW7.4 kmh WSW 6.9 mph11.1 kmh 29.50 in999.0 mb 0.00 in0.0 mm 0.00 in0.0 mm 0.22 in5.6 mm
09:05 PM 59.9°F15.5°C 55.4°F13.0°C 80% 6.6 mph SW10.6 kmh SW 12.3 mph19.8 kmh 29.50 in999.0 mb 0.00 in0.0 mm 0.00 in0.0 mm 0.22 in5.6 mm
09:10 PM 59.9°F15.5°C 55.4°F13.0°C 80% 6.3 mph SW10.1 kmh SW 12.3 mph19.8 kmh 29.50 in999.0 mb 0.00 in0.0 mm 0.00 in0.0 mm 0.22 in5.6 mm
09:15 PM 59.7°F15.4°C 53.6°F12.0°C 81% 4.4 mph SW7.1 kmh SW 6.5 mph10.5 kmh 29.50 in999.0 mb 0.00 in0.0 mm 0.00 in0.0 mm 0.22 in5.6 mm
09:20 PM 59.7°F15.4°C 53.6°F12.0°C 81% 4.2 mph SW6.8 kmh SW 7.2 mph11.6 kmh 29.50 in999.0 mb 0.00 in0.0 mm 0.00 in0.0 mm 0.22 in5.6 mm
09:25 PM 59.7°F15.4°C 53.6°F12.0°C 81% 3.8 mph SW6.1 kmh SW 7.2 mph11.6 kmh 29.50 in999.0 mb 0.00 in0.0 mm 0.00 in0.0 mm 0.22 in5.6 mm
09:30 PM 59.5°F15.3°C 53.6°F12.0°C 80% 4.5 mph WSW7.2 kmh WSW 10.7 mph17.2 kmh 29.50 in999.0 mb 0.00 in0.0 mm 0.00 in0.0 mm 0.22 in5.6 mm
09:35 PM 59.5°F15.3°C 53.6°F12.0°C 80% 5.7 mph WSW9.2 kmh WSW 10.7 mph17.2 kmh 29.50 in999.0 mb 0.00 in0.0 mm 0.00 in0.0 mm 0.22 in5.6 mm
09:40 PM 59.5°F15.3°C 53.6°F12.0°C 80% 6.5 mph WSW10.5 kmh WSW 12.1 mph19.5 kmh 29.50 in999.0 mb 0.00 in0.0 mm 0.00 in0.0 mm 0.22 in5.6 mm
09:45 PM 59.5°F15.3°C 53.6°F12.0°C 80% 6.7 mph SW10.8 kmh SW 12.1 mph19.5 kmh 29.50 in999.0 mb 0.00 in0.0 mm 0.00 in0.0 mm 0.22 in5.6 mm
09:50 PM 59.4°F15.2°C 53.6°F12.0°C 80% 5.2 mph SSW8.4 kmh SSW 10.5 mph16.9 kmh 29.50 in999.0 mb 0.00 in0.0 mm 0.00 in0.0 mm 0.22 in5.6 mm
09:55 PM 59.4°F15.2°C 53.6°F12.0°C 80% 4.8 mph SW7.7 kmh SW 8.7 mph14.0 kmh 29.50 in999.0 mb 0.00 in0.0 mm 0.00 in0.0 mm 0.22 in5.6 mm
10:00 PM 59.2°F15.1°C 53.6°F12.0°C 80% 6.3 mph SW10.1 kmh SW 14.3 mph23.0 kmh 29.50 in999.0 mb 0.00 in0.0 mm 0.00 in0.0 mm 0.22 in5.6 mm
10:05 PM 59.2°F15.1°C 53.6°F12.0°C 80% 6.6 mph SW10.6 kmh SW 14.3 mph23.0 kmh 29.50 in999.0 mb 0.06 in1.5 mm 0.72 in18.3 mm 0.28 in7.1 mm
10:10 PM 59.2°F15.1°C 53.6°F12.0°C 80% 6.4 mph WSW10.3 kmh WSW 10.5 mph16.9 kmh 29.53 in1000.0 mb 0.06 in1.5 mm 0.00 in0.0 mm 0.28 in7.1 mm
10:15 PM 59.0°F15.0°C 53.6°F12.0°C 80% 5.2 mph WSW8.4 kmh WSW 8.7 mph14.0 kmh 29.53 in1000.0 mb 0.06 in1.5 mm 0.00 in0.0 mm 0.28 in7.1 mm
10:20 PM 59.0°F15.0°C 53.6°F12.0°C 80% 4.7 mph SW7.6 kmh SW 10.1 mph16.3 kmh 29.53 in1000.0 mb 0.06 in1.5 mm 0.00 in0.0 mm 0.28 in7.1 mm
10:25 PM 59.0°F15.0°C 53.6°F12.0°C 80% 5.1 mph SW8.2 kmh SW 10.3 mph16.6 kmh 29.53 in1000.0 mb 0.06 in1.5 mm 0.00 in0.0 mm 0.28 in7.1 mm
10:30 PM 59.0°F15.0°C 53.6°F12.0°C 80% 6.1 mph SW9.8 kmh SW 10.5 mph16.9 kmh 29.53 in1000.0 mb 0.06 in1.5 mm 0.00 in0.0 mm 0.28 in7.1 mm
10:35 PM 59.0°F15.0°C 53.6°F12.0°C 80% 6.3 mph WSW10.1 kmh WSW 10.5 mph16.9 kmh 29.53 in1000.0 mb 0.06 in1.5 mm 0.00 in0.0 mm 0.28 in7.1 mm
10:40 PM 59.0°F15.0°C 53.6°F12.0°C 80% 5.7 mph WSW9.2 kmh WSW 10.5 mph16.9 kmh 29.53 in1000.0 mb 0.06 in1.5 mm 0.00 in0.0 mm 0.28 in7.1 mm
10:45 PM 58.8°F14.9°C 53.6°F12.0°C 80% 5.2 mph WSW8.4 kmh WSW 10.5 mph16.9 kmh 29.53 in1000.0 mb 0.06 in1.5 mm 0.00 in0.0 mm 0.28 in7.1 mm
10:50 PM 58.8°F14.9°C 53.6°F12.0°C 80% 5.0 mph SW8.0 kmh SW 9.8 mph15.8 kmh 29.53 in1000.0 mb 0.06 in1.5 mm 0.00 in0.0 mm 0.28 in7.1 mm
10:55 PM 58.6°F14.8°C 53.6°F12.0°C 80% 5.0 mph WSW8.0 kmh WSW 9.6 mph15.4 kmh 29.53 in1000.0 mb 0.06 in1.5 mm 0.00 in0.0 mm 0.28 in7.1 mm
11:00 PM 58.5°F14.7°C 53.6°F12.0°C 80% 5.6 mph WSW9.0 kmh WSW 9.6 mph15.4 kmh 29.53 in1000.0 mb 0.06 in1.5 mm 0.00 in0.0 mm 0.29 in7.4 mm
11:05 PM 58.3°F14.6°C 53.6°F12.0°C 81% 4.5 mph WSW7.2 kmh WSW 8.5 mph13.7 kmh 29.53 in1000.0 mb 0.00 in0.0 mm 0.00 in0.0 mm 0.29 in7.4 mm
11:10 PM 58.3°F14.6°C 53.6°F12.0°C 81% 3.7 mph SW6.0 kmh SW 5.6 mph9.0 kmh 29.53 in1000.0 mb 0.00 in0.0 mm 0.00 in0.0 mm 0.29 in7.4 mm
11:15 PM 58.3°F14.6°C 53.6°F12.0°C 80% 3.4 mph SW5.5 kmh SW 4.9 mph7.9 kmh 29.53 in1000.0 mb 0.00 in0.0 mm 0.00 in0.0 mm 0.29 in7.4 mm
11:20 PM 58.3°F14.6°C 53.6°F12.0°C 80% 2.8 mph SW4.5 kmh SW 4.9 mph7.9 kmh 29.53 in1000.0 mb 0.00 in0.0 mm 0.00 in0.0 mm 0.29 in7.4 mm
11:25 PM 58.3°F14.6°C 53.6°F12.0°C 80% 3.8 mph SW6.1 kmh SW 6.5 mph10.5 kmh 29.53 in1000.0 mb 0.00 in0.0 mm 0.00 in0.0 mm 0.29 in7.4 mm
11:30 PM 58.1°F14.5°C 53.6°F12.0°C 80% 4.6 mph SSW7.4 kmh SSW 7.2 mph11.6 kmh 29.53 in1000.0 mb 0.00 in0.0 mm 0.00 in0.0 mm 0.29 in7.4 mm
11:35 PM 58.1°F14.5°C 53.6°F12.0°C 80% 4.2 mph SW6.8 kmh SW 8.1 mph13.0 kmh 29.53 in1000.0 mb 0.00 in0.0 mm 0.00 in0.0 mm 0.29 in7.4 mm
11:40 PM 57.9°F14.4°C 51.8°F11.0°C 80% 3.4 mph SW5.5 kmh SW 8.1 mph13.0 kmh 29.53 in1000.0 mb 0.00 in0.0 mm 0.00 in0.0 mm 0.29 in7.4 mm
11:45 PM 57.9°F14.4°C 51.8°F11.0°C 80% 4.1 mph SW6.6 kmh SW 8.1 mph13.0 kmh 29.53 in1000.0 mb 0.00 in0.0 mm 0.00 in0.0 mm 0.29 in7.4 mm
11:50 PM 57.7°F14.3°C 51.8°F11.0°C 80% 4.5 mph SW7.2 kmh SW 7.8 mph12.6 kmh 29.53 in1000.0 mb 0.00 in0.0 mm 0.00 in0.0 mm 0.29 in7.4 mm
11:55 PM 57.7°F14.3°C 51.8°F11.0°C 80% 3.4 mph SW5.5 kmh SW 7.8 mph12.6 kmh 29.53 in1000.0 mb 0.00 in0.0 mm 0.00 in0.0 mm 0.29 in7.4 mm